sensor_id;sensor_type;location;lat;lon;timestamp;P1;durP1;ratioP1;P2;durP2;ratioP2
9689;SDS011;4884;42.614;23.340;2023-01-08T00:01:23;6.63;;;3.73;;
9689;SDS011;4884;42.614;23.340;2023-01-08T00:03:48;5.37;;;3.30;;
9689;SDS011;4884;42.614;23.340;2023-01-08T00:06:15;8.67;;;3.70;;
9689;SDS011;4884;42.614;23.340;2023-01-08T00:08:42;6.37;;;3.87;;
9689;SDS011;4884;42.614;23.340;2023-01-08T00:11:07;6.07;;;3.63;;
9689;SDS011;4884;42.614;23.340;2023-01-08T00:13:33;7.17;;;4.07;;
9689;SDS011;4884;42.614;23.340;2023-01-08T00:16:02;5.27;;;3.67;;
9689;SDS011;4884;42.614;23.340;2023-01-08T00:18:31;3.87;;;2.50;;
9689;SDS011;4884;42.614;23.340;2023-01-08T00:20:57;3.97;;;2.93;;
9689;SDS011;4884;42.614;23.340;2023-01-08T00:23:22;4.23;;;2.70;;
9689;SDS011;4884;42.614;23.340;2023-01-08T00:25:48;4.43;;;2.93;;
9689;SDS011;4884;42.614;23.340;2023-01-08T00:28:14;2.70;;;2.50;;
9689;SDS011;4884;42.614;23.340;2023-01-08T00:30:40;5.93;;;3.37;;
9689;SDS011;4884;42.614;23.340;2023-01-08T00:33:06;5.50;;;3.50;;
9689;SDS011;4884;42.614;23.340;2023-01-08T00:35:31;4.40;;;2.67;;
9689;SDS011;4884;42.614;23.340;2023-01-08T00:37:56;2.53;;;1.90;;
9689;SDS011;4884;42.614;23.340;2023-01-08T00:40:22;3.10;;;2.00;;
9689;SDS011;4884;42.614;23.340;2023-01-08T00:42:47;3.13;;;2.10;;
9689;SDS011;4884;42.614;23.340;2023-01-08T00:45:13;2.37;;;1.70;;
9689;SDS011;4884;42.614;23.340;2023-01-08T00:47:38;4.30;;;3.10;;
9689;SDS011;4884;42.614;23.340;2023-01-08T00:50:04;4.67;;;3.37;;
9689;SDS011;4884;42.614;23.340;2023-01-08T00:52:29;4.57;;;3.17;;
9689;SDS011;4884;42.614;23.340;2023-01-08T00:54:55;3.47;;;2.87;;
9689;SDS011;4884;42.614;23.340;2023-01-08T00:57:20;6.10;;;3.37;;
9689;SDS011;4884;42.614;23.340;2023-01-08T00:59:46;6.77;;;3.23;;
9689;SDS011;4884;42.614;23.340;2023-01-08T01:02:11;4.37;;;2.90;;
9689;SDS011;4884;42.614;23.340;2023-01-08T01:04:36;4.27;;;2.30;;
9689;SDS011;4884;42.614;23.340;2023-01-08T01:07:02;6.00;;;3.37;;
9689;SDS011;4884;42.614;23.340;2023-01-08T01:09:27;4.20;;;2.40;;
9689;SDS011;4884;42.614;23.340;2023-01-08T01:11:53;3.00;;;2.23;;
9689;SDS011;4884;42.614;23.340;2023-01-08T01:14:19;2.30;;;2.10;;
9689;SDS011;4884;42.614;23.340;2023-01-08T01:16:44;4.93;;;2.17;;
9689;SDS011;4884;42.614;23.340;2023-01-08T01:19:12;4.93;;;3.03;;
9689;SDS011;4884;42.614;23.340;2023-01-08T01:21:38;15.73;;;7.33;;
9689;SDS011;4884;42.614;23.340;2023-01-08T01:24:04;17.27;;;7.83;;
9689;SDS011;4884;42.614;23.340;2023-01-08T01:26:30;33.47;;;14.60;;
9689;SDS011;4884;42.614;23.340;2023-01-08T01:28:57;54.73;;;23.93;;
9689;SDS011;4884;42.614;23.340;2023-01-08T01:31:23;42.77;;;18.97;;
9689;SDS011;4884;42.614;23.340;2023-01-08T01:33:50;48.63;;;20.10;;
9689;SDS011;4884;42.614;23.340;2023-01-08T01:36:16;46.57;;;17.60;;
9689;SDS011;4884;42.614;23.340;2023-01-08T01:38:47;26.40;;;11.40;;
9689;SDS011;4884;42.614;23.340;2023-01-08T01:44:00;21.43;;;8.80;;
9689;SDS011;4884;42.614;23.340;2023-01-08T01:47:21;23.20;;;10.23;;
9689;SDS011;4884;42.614;23.340;2023-01-08T01:49:59;22.67;;;10.03;;
9689;SDS011;4884;42.614;23.340;2023-01-08T01:52:29;23.03;;;10.30;;
9689;SDS011;4884;42.614;23.340;2023-01-08T01:54:56;26.23;;;10.00;;
9689;SDS011;4884;42.614;23.340;2023-01-08T01:57:24;22.10;;;9.27;;
9689;SDS011;4884;42.614;23.340;2023-01-08T01:59:50;21.20;;;10.70;;
9689;SDS011;4884;42.614;23.340;2023-01-08T02:02:16;18.27;;;8.20;;
9689;SDS011;4884;42.614;23.340;2023-01-08T02:04:42;18.20;;;9.03;;
9689;SDS011;4884;42.614;23.340;2023-01-08T02:09:57;17.40;;;8.67;;
9689;SDS011;4884;42.614;23.340;2023-01-08T02:12:56;21.20;;;10.73;;
9689;SDS011;4884;42.614;23.340;2023-01-08T02:15:26;19.73;;;11.17;;
9689;SDS011;4884;42.614;23.340;2023-01-08T02:20:31;18.00;;;10.30;;
9689;SDS011;4884;42.614;23.340;2023-01-08T02:26:23;9.67;;;6.63;;
9689;SDS011;4884;42.614;23.340;2023-01-08T02:28:54;8.80;;;5.93;;
9689;SDS011;4884;42.614;23.340;2023-01-08T02:31:23;10.63;;;6.73;;
9689;SDS011;4884;42.614;23.340;2023-01-08T02:33:50;8.73;;;6.10;;
9689;SDS011;4884;42.614;23.340;2023-01-08T02:38:47;10.93;;;4.47;;
9689;SDS011;4884;42.614;23.340;2023-01-08T02:41:19;6.90;;;4.33;;
9689;SDS011;4884;42.614;23.340;2023-01-08T02:43:49;6.60;;;4.97;;
9689;SDS011;4884;42.614;23.340;2023-01-08T02:46:16;10.40;;;5.77;;
9689;SDS011;4884;42.614;23.340;2023-01-08T02:48:45;7.83;;;5.33;;
9689;SDS011;4884;42.614;23.340;2023-01-08T02:51:23;7.63;;;4.87;;
9689;SDS011;4884;42.614;23.340;2023-01-08T02:53:53;7.37;;;4.63;;
9689;SDS011;4884;42.614;23.340;2023-01-08T02:59:28;8.43;;;4.50;;
9689;SDS011;4884;42.614;23.340;2023-01-08T03:01:55;5.83;;;3.43;;
9689;SDS011;4884;42.614;23.340;2023-01-08T03:04:21;5.37;;;3.57;;
9689;SDS011;4884;42.614;23.340;2023-01-08T03:06:48;4.80;;;3.40;;
9689;SDS011;4884;42.614;23.340;2023-01-08T03:09:13;5.70;;;3.70;;
9689;SDS011;4884;42.614;23.340;2023-01-08T03:11:44;6.37;;;4.57;;
9689;SDS011;4884;42.614;23.340;2023-01-08T03:14:17;7.63;;;5.00;;
9689;SDS011;4884;42.614;23.340;2023-01-08T03:17:12;8.63;;;5.40;;
9689;SDS011;4884;42.614;23.340;2023-01-08T03:19:39;10.47;;;6.07;;
9689;SDS011;4884;42.614;23.340;2023-01-08T03:22:08;14.73;;;7.80;;
9689;SDS011;4884;42.614;23.340;2023-01-08T03:24:36;11.83;;;7.33;;
9689;SDS011;4884;42.614;23.340;2023-01-08T03:27:03;8.50;;;4.87;;
9689;SDS011;4884;42.614;23.340;2023-01-08T03:29:31;11.90;;;6.87;;
9689;SDS011;4884;42.614;23.340;2023-01-08T03:31:59;8.40;;;6.30;;
9689;SDS011;4884;42.614;23.340;2023-01-08T03:34:27;10.13;;;6.07;;
9689;SDS011;4884;42.614;23.340;2023-01-08T03:36:54;10.57;;;5.77;;
9689;SDS011;4884;42.614;23.340;2023-01-08T03:39:23;10.07;;;7.20;;
9689;SDS011;4884;42.614;23.340;2023-01-08T03:41:51;11.70;;;4.93;;
9689;SDS011;4884;42.614;23.340;2023-01-08T03:44:19;5.27;;;4.23;;
9689;SDS011;4884;42.614;23.340;2023-01-08T03:46:46;5.70;;;3.83;;
9689;SDS011;4884;42.614;23.340;2023-01-08T03:49:14;4.13;;;3.67;;
9689;SDS011;4884;42.614;23.340;2023-01-08T03:51:43;5.43;;;3.67;;
9689;SDS011;4884;42.614;23.340;2023-01-08T03:54:12;5.30;;;3.67;;
9689;SDS011;4884;42.614;23.340;2023-01-08T03:56:42;6.53;;;4.73;;
9689;SDS011;4884;42.614;23.340;2023-01-08T03:59:09;6.23;;;4.13;;
9689;SDS011;4884;42.614;23.340;2023-01-08T04:01:35;7.60;;;4.70;;
9689;SDS011;4884;42.614;23.340;2023-01-08T04:04:01;4.43;;;3.30;;
9689;SDS011;4884;42.614;23.340;2023-01-08T04:06:26;5.63;;;3.37;;
9689;SDS011;4884;42.614;23.340;2023-01-08T04:08:51;8.03;;;3.90;;
9689;SDS011;4884;42.614;23.340;2023-01-08T04:11:17;6.30;;;3.10;;
9689;SDS011;4884;42.614;23.340;2023-01-08T04:13:42;4.17;;;3.13;;
9689;SDS011;4884;42.614;23.340;2023-01-08T04:16:08;6.27;;;3.43;;
9689;SDS011;4884;42.614;23.340;2023-01-08T04:18:33;3.50;;;2.60;;
9689;SDS011;4884;42.614;23.340;2023-01-08T04:20:59;5.10;;;2.30;;
9689;SDS011;4884;42.614;23.340;2023-01-08T04:23:24;6.37;;;2.83;;
9689;SDS011;4884;42.614;23.340;2023-01-08T04:25:50;4.07;;;2.40;;
9689;SDS011;4884;42.614;23.340;2023-01-08T04:28:16;5.30;;;3.13;;
9689;SDS011;4884;42.614;23.340;2023-01-08T04:30:41;3.73;;;2.47;;
9689;SDS011;4884;42.614;23.340;2023-01-08T04:33:07;6.30;;;3.47;;
9689;SDS011;4884;42.614;23.340;2023-01-08T04:35:32;5.80;;;3.50;;
9689;SDS011;4884;42.614;23.340;2023-01-08T04:37:57;3.27;;;2.87;;
9689;SDS011;4884;42.614;23.340;2023-01-08T04:40:23;4.57;;;2.67;;
9689;SDS011;4884;42.614;23.340;2023-01-08T04:42:48;3.00;;;2.53;;
9689;SDS011;4884;42.614;23.340;2023-01-08T04:45:13;3.37;;;2.93;;
9689;SDS011;4884;42.614;23.340;2023-01-08T04:47:39;4.27;;;2.37;;
9689;SDS011;4884;42.614;23.340;2023-01-08T04:50:04;4.27;;;2.70;;
9689;SDS011;4884;42.614;23.340;2023-01-08T04:52:30;3.20;;;2.30;;
9689;SDS011;4884;42.614;23.340;2023-01-08T04:54:55;6.00;;;2.53;;
9689;SDS011;4884;42.614;23.340;2023-01-08T04:57:21;3.00;;;2.30;;
9689;SDS011;4884;42.614;23.340;2023-01-08T04:59:46;4.93;;;2.80;;
9689;SDS011;4884;42.614;23.340;2023-01-08T05:02:12;5.27;;;3.40;;
9689;SDS011;4884;42.614;23.340;2023-01-08T05:04:38;3.90;;;2.70;;
9689;SDS011;4884;42.614;23.340;2023-01-08T05:07:03;6.30;;;3.50;;
9689;SDS011;4884;42.614;23.340;2023-01-08T05:09:29;4.57;;;3.40;;
9689;SDS011;4884;42.614;23.340;2023-01-08T05:11:54;4.33;;;3.10;;
9689;SDS011;4884;42.614;23.340;2023-01-08T05:14:20;15.67;;;7.97;;
9689;SDS011;4884;42.614;23.340;2023-01-08T05:16:45;19.63;;;8.67;;
9689;SDS011;4884;42.614;23.340;2023-01-08T05:19:11;20.90;;;9.83;;
9689;SDS011;4884;42.614;23.340;2023-01-08T05:21:36;16.90;;;9.23;;
9689;SDS011;4884;42.614;23.340;2023-01-08T05:24:02;12.13;;;8.53;;
9689;SDS011;4884;42.614;23.340;2023-01-08T05:26:27;9.27;;;5.97;;
9689;SDS011;4884;42.614;23.340;2023-01-08T05:28:53;6.17;;;4.83;;
9689;SDS011;4884;42.614;23.340;2023-01-08T05:31:18;5.17;;;4.37;;
9689;SDS011;4884;42.614;23.340;2023-01-08T05:33:44;5.63;;;3.60;;
9689;SDS011;4884;42.614;23.340;2023-01-08T05:36:10;5.97;;;5.37;;
9689;SDS011;4884;42.614;23.340;2023-01-08T05:38:36;7.40;;;5.20;;
9689;SDS011;4884;42.614;23.340;2023-01-08T05:41:02;7.73;;;4.57;;
9689;SDS011;4884;42.614;23.340;2023-01-08T05:43:28;4.23;;;3.30;;
9689;SDS011;4884;42.614;23.340;2023-01-08T05:45:53;5.60;;;5.00;;
9689;SDS011;4884;42.614;23.340;2023-01-08T05:48:19;8.67;;;5.60;;
9689;SDS011;4884;42.614;23.340;2023-01-08T05:50:44;9.17;;;6.93;;
9689;SDS011;4884;42.614;23.340;2023-01-08T05:53:09;7.13;;;6.20;;
9689;SDS011;4884;42.614;23.340;2023-01-08T05:55:35;4.63;;;4.23;;
9689;SDS011;4884;42.614;23.340;2023-01-08T05:58:01;5.20;;;4.40;;
9689;SDS011;4884;42.614;23.340;2023-01-08T06:00:27;3.67;;;3.13;;
9689;SDS011;4884;42.614;23.340;2023-01-08T06:02:53;4.23;;;3.83;;
9689;SDS011;4884;42.614;23.340;2023-01-08T06:05:18;10.30;;;3.27;;
9689;SDS011;4884;42.614;23.340;2023-01-08T06:07:44;8.63;;;5.63;;
9689;SDS011;4884;42.614;23.340;2023-01-08T06:10:09;6.80;;;4.40;;
9689;SDS011;4884;42.614;23.340;2023-01-08T06:12:34;5.97;;;5.17;;
9689;SDS011;4884;42.614;23.340;2023-01-08T06:15:00;7.83;;;3.90;;
9689;SDS011;4884;42.614;23.340;2023-01-08T06:17:25;3.67;;;3.07;;
9689;SDS011;4884;42.614;23.340;2023-01-08T06:19:50;4.73;;;2.60;;
9689;SDS011;4884;42.614;23.340;2023-01-08T06:22:16;5.80;;;2.93;;
9689;SDS011;4884;42.614;23.340;2023-01-08T06:24:41;4.43;;;2.93;;
9689;SDS011;4884;42.614;23.340;2023-01-08T06:27:06;5.20;;;3.53;;
9689;SDS011;4884;42.614;23.340;2023-01-08T06:29:32;5.23;;;4.37;;
9689;SDS011;4884;42.614;23.340;2023-01-08T06:31:57;9.33;;;6.27;;
9689;SDS011;4884;42.614;23.340;2023-01-08T06:34:22;8.60;;;5.67;;
9689;SDS011;4884;42.614;23.340;2023-01-08T06:36:48;11.27;;;7.60;;
9689;SDS011;4884;42.614;23.340;2023-01-08T06:39:15;11.50;;;7.20;;
9689;SDS011;4884;42.614;23.340;2023-01-08T06:41:41;10.73;;;6.53;;
9689;SDS011;4884;42.614;23.340;2023-01-08T06:44:07;12.97;;;6.80;;
9689;SDS011;4884;42.614;23.340;2023-01-08T06:46:32;16.83;;;8.90;;
9689;SDS011;4884;42.614;23.340;2023-01-08T06:49:02;11.37;;;8.10;;
9689;SDS011;4884;42.614;23.340;2023-01-08T06:51:27;21.63;;;12.43;;
9689;SDS011;4884;42.614;23.340;2023-01-08T06:53:53;13.43;;;10.93;;
9689;SDS011;4884;42.614;23.340;2023-01-08T06:56:18;18.13;;;9.73;;
9689;SDS011;4884;42.614;23.340;2023-01-08T06:58:43;15.47;;;11.60;;
9689;SDS011;4884;42.614;23.340;2023-01-08T07:01:11;14.67;;;11.50;;
9689;SDS011;4884;42.614;23.340;2023-01-08T07:03:38;12.67;;;8.57;;
9689;SDS011;4884;42.614;23.340;2023-01-08T07:06:03;22.13;;;10.17;;
9689;SDS011;4884;42.614;23.340;2023-01-08T07:08:29;19.40;;;10.83;;
9689;SDS011;4884;42.614;23.340;2023-01-08T07:10:54;17.47;;;12.90;;
9689;SDS011;4884;42.614;23.340;2023-01-08T07:13:20;19.77;;;13.10;;
9689;SDS011;4884;42.614;23.340;2023-01-08T07:15:47;16.37;;;12.47;;
9689;SDS011;4884;42.614;23.340;2023-01-08T07:18:13;15.33;;;11.30;;
9689;SDS011;4884;42.614;23.340;2023-01-08T07:20:38;14.23;;;10.73;;
9689;SDS011;4884;42.614;23.340;2023-01-08T07:23:04;15.80;;;10.43;;
9689;SDS011;4884;42.614;23.340;2023-01-08T07:25:32;14.37;;;11.90;;
9689;SDS011;4884;42.614;23.340;2023-01-08T07:27:58;14.10;;;10.20;;
9689;SDS011;4884;42.614;23.340;2023-01-08T07:30:23;15.43;;;11.80;;
9689;SDS011;4884;42.614;23.340;2023-01-08T07:32:49;18.37;;;14.50;;
9689;SDS011;4884;42.614;23.340;2023-01-08T07:35:14;22.00;;;16.80;;
9689;SDS011;4884;42.614;23.340;2023-01-08T07:37:40;20.00;;;16.13;;
9689;SDS011;4884;42.614;23.340;2023-01-08T07:40:07;20.87;;;16.93;;
9689;SDS011;4884;42.614;23.340;2023-01-08T07:42:36;21.50;;;18.40;;
9689;SDS011;4884;42.614;23.340;2023-01-08T07:45:02;34.07;;;23.23;;
9689;SDS011;4884;42.614;23.340;2023-01-08T07:47:27;33.20;;;26.20;;
9689;SDS011;4884;42.614;23.340;2023-01-08T07:49:53;38.53;;;26.70;;
9689;SDS011;4884;42.614;23.340;2023-01-08T07:52:18;32.27;;;25.90;;
9689;SDS011;4884;42.614;23.340;2023-01-08T07:54:43;40.17;;;29.53;;
9689;SDS011;4884;42.614;23.340;2023-01-08T07:57:09;31.97;;;25.33;;
9689;SDS011;4884;42.614;23.340;2023-01-08T07:59:34;27.57;;;23.07;;
9689;SDS011;4884;42.614;23.340;2023-01-08T08:02:00;33.77;;;22.90;;
9689;SDS011;4884;42.614;23.340;2023-01-08T08:04:25;25.37;;;21.97;;
9689;SDS011;4884;42.614;23.340;2023-01-08T08:06:50;32.30;;;23.90;;
9689;SDS011;4884;42.614;23.340;2023-01-08T08:09:16;26.00;;;20.60;;
9689;SDS011;4884;42.614;23.340;2023-01-08T08:11:41;22.47;;;20.07;;
9689;SDS011;4884;42.614;23.340;2023-01-08T08:14:07;29.47;;;21.87;;
9689;SDS011;4884;42.614;23.340;2023-01-08T08:16:32;23.13;;;20.13;;
9689;SDS011;4884;42.614;23.340;2023-01-08T08:18:58;24.43;;;20.17;;
9689;SDS011;4884;42.614;23.340;2023-01-08T08:21:23;26.43;;;20.90;;
9689;SDS011;4884;42.614;23.340;2023-01-08T08:23:49;29.30;;;20.93;;
9689;SDS011;4884;42.614;23.340;2023-01-08T08:26:14;26.93;;;20.50;;
9689;SDS011;4884;42.614;23.340;2023-01-08T08:28:40;23.77;;;19.70;;
9689;SDS011;4884;42.614;23.340;2023-01-08T08:31:05;27.20;;;21.67;;
9689;SDS011;4884;42.614;23.340;2023-01-08T08:33:30;25.67;;;19.73;;
9689;SDS011;4884;42.614;23.340;2023-01-08T08:35:56;23.60;;;19.00;;
9689;SDS011;4884;42.614;23.340;2023-01-08T08:38:21;21.67;;;19.10;;
9689;SDS011;4884;42.614;23.340;2023-01-08T08:40:47;22.87;;;18.27;;
9689;SDS011;4884;42.614;23.340;2023-01-08T08:43:12;20.90;;;17.30;;
9689;SDS011;4884;42.614;23.340;2023-01-08T08:45:37;23.47;;;19.50;;
9689;SDS011;4884;42.614;23.340;2023-01-08T08:48:06;21.07;;;17.40;;
9689;SDS011;4884;42.614;23.340;2023-01-08T08:50:32;21.30;;;17.43;;
9689;SDS011;4884;42.614;23.340;2023-01-08T08:52:59;20.77;;;16.50;;
9689;SDS011;4884;42.614;23.340;2023-01-08T08:55:25;17.13;;;15.33;;
9689;SDS011;4884;42.614;23.340;2023-01-08T08:57:51;18.77;;;15.73;;
9689;SDS011;4884;42.614;23.340;2023-01-08T09:00:17;20.67;;;15.57;;
9689;SDS011;4884;42.614;23.340;2023-01-08T09:02:42;20.10;;;14.77;;
9689;SDS011;4884;42.614;23.340;2023-01-08T09:05:08;21.60;;;15.57;;
9689;SDS011;4884;42.614;23.340;2023-01-08T09:07:34;24.53;;;14.30;;
9689;SDS011;4884;42.614;23.340;2023-01-08T09:10:00;18.90;;;13.97;;
9689;SDS011;4884;42.614;23.340;2023-01-08T09:12:26;17.10;;;13.67;;
9689;SDS011;4884;42.614;23.340;2023-01-08T09:14:51;18.80;;;13.47;;
9689;SDS011;4884;42.614;23.340;2023-01-08T09:17:18;17.57;;;12.87;;
9689;SDS011;4884;42.614;23.340;2023-01-08T09:19:45;16.53;;;12.33;;
9689;SDS011;4884;42.614;23.340;2023-01-08T09:22:11;19.00;;;12.40;;
9689;SDS011;4884;42.614;23.340;2023-01-08T09:24:36;16.63;;;12.40;;
9689;SDS011;4884;42.614;23.340;2023-01-08T09:27:02;14.70;;;10.70;;
9689;SDS011;4884;42.614;23.340;2023-01-08T09:29:27;13.07;;;11.33;;
9689;SDS011;4884;42.614;23.340;2023-01-08T09:31:52;14.03;;;10.40;;
9689;SDS011;4884;42.614;23.340;2023-01-08T09:34:18;13.93;;;10.73;;
9689;SDS011;4884;42.614;23.340;2023-01-08T09:36:43;13.83;;;11.10;;
9689;SDS011;4884;42.614;23.340;2023-01-08T09:39:08;13.10;;;10.27;;
9689;SDS011;4884;42.614;23.340;2023-01-08T09:41:38;12.80;;;10.60;;
9689;SDS011;4884;42.614;23.340;2023-01-08T09:44:10;15.63;;;10.53;;
9689;SDS011;4884;42.614;23.340;2023-01-08T09:46:39;13.23;;;10.63;;
9689;SDS011;4884;42.614;23.340;2023-01-08T09:49:05;13.00;;;10.73;;
9689;SDS011;4884;42.614;23.340;2023-01-08T09:51:35;13.33;;;11.30;;
9689;SDS011;4884;42.614;23.340;2023-01-08T09:54:01;15.43;;;11.50;;
9689;SDS011;4884;42.614;23.340;2023-01-08T09:56:27;13.27;;;9.57;;
9689;SDS011;4884;42.614;23.340;2023-01-08T09:58:53;11.00;;;9.83;;
9689;SDS011;4884;42.614;23.340;2023-01-08T10:01:25;11.90;;;9.90;;
9689;SDS011;4884;42.614;23.340;2023-01-08T10:03:54;11.83;;;9.67;;
9689;SDS011;4884;42.614;23.340;2023-01-08T10:06:24;10.77;;;9.70;;
9689;SDS011;4884;42.614;23.340;2023-01-08T10:08:50;11.47;;;10.27;;
9689;SDS011;4884;42.614;23.340;2023-01-08T10:11:16;11.27;;;9.87;;
9689;SDS011;4884;42.614;23.340;2023-01-08T10:13:43;12.57;;;9.73;;
9689;SDS011;4884;42.614;23.340;2023-01-08T10:16:15;15.70;;;11.17;;
9689;SDS011;4884;42.614;23.340;2023-01-08T10:18:54;14.47;;;11.67;;
9689;SDS011;4884;42.614;23.340;2023-01-08T10:21:20;12.93;;;10.70;;
9689;SDS011;4884;42.614;23.340;2023-01-08T10:23:54;29.97;;;18.30;;
9689;SDS011;4884;42.614;23.340;2023-01-08T10:26:24;22.17;;;15.20;;
9689;SDS011;4884;42.614;23.340;2023-01-08T10:28:51;16.80;;;12.53;;
9689;SDS011;4884;42.614;23.340;2023-01-08T10:31:17;17.03;;;14.70;;
9689;SDS011;4884;42.614;23.340;2023-01-08T10:33:43;17.83;;;14.30;;
9689;SDS011;4884;42.614;23.340;2023-01-08T10:36:22;15.67;;;13.97;;
9689;SDS011;4884;42.614;23.340;2023-01-08T10:38:52;18.17;;;16.27;;
9689;SDS011;4884;42.614;23.340;2023-01-08T10:41:20;22.77;;;20.47;;
9689;SDS011;4884;42.614;23.340;2023-01-08T10:46:31;19.97;;;17.83;;
9689;SDS011;4884;42.614;23.340;2023-01-08T10:49:01;17.83;;;15.73;;
9689;SDS011;4884;42.614;23.340;2023-01-08T10:51:28;18.60;;;16.43;;
9689;SDS011;4884;42.614;23.340;2023-01-08T10:53:57;20.63;;;18.47;;
9689;SDS011;4884;42.614;23.340;2023-01-08T10:56:25;19.23;;;16.67;;
9689;SDS011;4884;42.614;23.340;2023-01-08T10:58:52;23.03;;;18.30;;
9689;SDS011;4884;42.614;23.340;2023-01-08T11:01:25;24.17;;;18.33;;
9689;SDS011;4884;42.614;23.340;2023-01-08T11:03:56;20.43;;;17.67;;
9689;SDS011;4884;42.614;23.340;2023-01-08T11:06:28;21.67;;;18.27;;
9689;SDS011;4884;42.614;23.340;2023-01-08T11:08:59;21.70;;;18.10;;
9689;SDS011;4884;42.614;23.340;2023-01-08T11:11:32;22.70;;;19.40;;
9689;SDS011;4884;42.614;23.340;2023-01-08T11:13:59;23.90;;;19.00;;
9689;SDS011;4884;42.614;23.340;2023-01-08T11:16:59;22.20;;;19.73;;
9689;SDS011;4884;42.614;23.340;2023-01-08T11:19:24;28.10;;;23.83;;
9689;SDS011;4884;42.614;23.340;2023-01-08T11:21:56;24.33;;;20.23;;
9689;SDS011;4884;42.614;23.340;2023-01-08T11:27:07;31.27;;;22.67;;
9689;SDS011;4884;42.614;23.340;2023-01-08T11:37:45;24.97;;;20.27;;
9689;SDS011;4884;42.614;23.340;2023-01-08T11:40:37;26.83;;;20.43;;
9689;SDS011;4884;42.614;23.340;2023-01-08T11:46:35;29.83;;;21.23;;
9689;SDS011;4884;42.614;23.340;2023-01-08T11:49:49;23.07;;;18.83;;
9689;SDS011;4884;42.614;23.340;2023-01-08T12:05:13;25.10;;;19.93;;
9689;SDS011;4884;42.614;23.340;2023-01-08T12:13:44;25.53;;;20.10;;
9689;SDS011;4884;42.614;23.340;2023-01-08T12:24:56;23.63;;;20.07;;
9689;SDS011;4884;42.614;23.340;2023-01-08T12:30:31;24.37;;;19.13;;
9689;SDS011;4884;42.614;23.340;2023-01-08T12:33:02;26.20;;;20.83;;
9689;SDS011;4884;42.614;23.340;2023-01-08T12:35:35;22.57;;;18.63;;
9689;SDS011;4884;42.614;23.340;2023-01-08T12:38:12;26.87;;;18.83;;
9689;SDS011;4884;42.614;23.340;2023-01-08T12:40:45;29.67;;;20.93;;
9689;SDS011;4884;42.614;23.340;2023-01-08T12:43:17;24.60;;;20.30;;
9689;SDS011;4884;42.614;23.340;2023-01-08T12:45:46;27.23;;;20.53;;
9689;SDS011;4884;42.614;23.340;2023-01-08T12:48:17;26.80;;;20.70;;
9689;SDS011;4884;42.614;23.340;2023-01-08T13:04:10;26.73;;;23.40;;
9689;SDS011;4884;42.614;23.340;2023-01-08T13:06:36;28.17;;;22.50;;
9689;SDS011;4884;42.614;23.340;2023-01-08T13:09:01;27.10;;;22.27;;
9689;SDS011;4884;42.614;23.340;2023-01-08T13:13:57;37.00;;;28.20;;
9689;SDS011;4884;42.614;23.340;2023-01-08T13:16:24;40.97;;;30.07;;
9689;SDS011;4884;42.614;23.340;2023-01-08T13:18:56;40.40;;;28.60;;
9689;SDS011;4884;42.614;23.340;2023-01-08T13:24:05;38.50;;;28.27;;
9689;SDS011;4884;42.614;23.340;2023-01-08T13:26:43;40.60;;;29.13;;
9689;SDS011;4884;42.614;23.340;2023-01-08T13:35:13;75.03;;;43.50;;
9689;SDS011;4884;42.614;23.340;2023-01-08T13:37:46;73.33;;;48.93;;
9689;SDS011;4884;42.614;23.340;2023-01-08T13:48:26;65.33;;;42.20;;
9689;SDS011;4884;42.614;23.340;2023-01-08T13:50:52;56.03;;;38.20;;
9689;SDS011;4884;42.614;23.340;2023-01-08T13:53:18;65.40;;;45.90;;
9689;SDS011;4884;42.614;23.340;2023-01-08T13:55:57;118.93;;;73.57;;
9689;SDS011;4884;42.614;23.340;2023-01-08T13:58:25;121.57;;;64.77;;
9689;SDS011;4884;42.614;23.340;2023-01-08T14:00:52;53.17;;;36.07;;
9689;SDS011;4884;42.614;23.340;2023-01-08T14:03:29;51.73;;;36.97;;
9689;SDS011;4884;42.614;23.340;2023-01-08T14:08:57;32.50;;;23.20;;
9689;SDS011;4884;42.614;23.340;2023-01-08T14:11:28;32.37;;;21.20;;
9689;SDS011;4884;42.614;23.340;2023-01-08T14:13:55;36.83;;;26.40;;
9689;SDS011;4884;42.614;23.340;2023-01-08T14:16:20;68.73;;;40.97;;
9689;SDS011;4884;42.614;23.340;2023-01-08T14:18:46;54.93;;;41.23;;
9689;SDS011;4884;42.614;23.340;2023-01-08T14:21:12;96.63;;;66.57;;
9689;SDS011;4884;42.614;23.340;2023-01-08T14:23:44;223.23;;;135.80;;
9689;SDS011;4884;42.614;23.340;2023-01-08T14:26:15;205.03;;;122.00;;
9689;SDS011;4884;42.614;23.340;2023-01-08T14:28:51;125.03;;;72.73;;
9689;SDS011;4884;42.614;23.340;2023-01-08T14:31:19;199.13;;;114.00;;
9689;SDS011;4884;42.614;23.340;2023-01-08T14:33:46;156.37;;;94.77;;
9689;SDS011;4884;42.614;23.340;2023-01-08T14:36:12;127.67;;;76.13;;
9689;SDS011;4884;42.614;23.340;2023-01-08T14:38:37;116.80;;;66.83;;
9689;SDS011;4884;42.614;23.340;2023-01-08T14:41:10;149.73;;;82.03;;
9689;SDS011;4884;42.614;23.340;2023-01-08T14:43:44;160.50;;;91.13;;
9689;SDS011;4884;42.614;23.340;2023-01-08T14:46:17;139.93;;;75.93;;
9689;SDS011;4884;42.614;23.340;2023-01-08T14:48:43;212.00;;;114.90;;
9689;SDS011;4884;42.614;23.340;2023-01-08T14:51:10;144.40;;;79.87;;
9689;SDS011;4884;42.614;23.340;2023-01-08T14:53:45;134.20;;;77.17;;
9689;SDS011;4884;42.614;23.340;2023-01-08T14:56:14;121.10;;;72.80;;
9689;SDS011;4884;42.614;23.340;2023-01-08T14:58:41;158.57;;;90.13;;
9689;SDS011;4884;42.614;23.340;2023-01-08T15:01:18;99.90;;;63.10;;
9689;SDS011;4884;42.614;23.340;2023-01-08T15:03:46;121.80;;;73.07;;
9689;SDS011;4884;42.614;23.340;2023-01-08T15:06:23;69.87;;;44.97;;
9689;SDS011;4884;42.614;23.340;2023-01-08T15:08:57;57.33;;;39.63;;
9689;SDS011;4884;42.614;23.340;2023-01-08T15:13:53;46.87;;;34.53;;
9689;SDS011;4884;42.614;23.340;2023-01-08T15:19:11;39.53;;;28.93;;
9689;SDS011;4884;42.614;23.340;2023-01-08T15:21:36;55.33;;;36.20;;
9689;SDS011;4884;42.614;23.340;2023-01-08T15:24:03;57.97;;;39.17;;
9689;SDS011;4884;42.614;23.340;2023-01-08T15:26:29;40.57;;;28.17;;
9689;SDS011;4884;42.614;23.340;2023-01-08T15:28:56;49.10;;;34.53;;
9689;SDS011;4884;42.614;23.340;2023-01-08T15:31:43;36.17;;;24.87;;
9689;SDS011;4884;42.614;23.340;2023-01-08T15:34:10;26.63;;;17.17;;
9689;SDS011;4884;42.614;23.340;2023-01-08T15:36:36;35.83;;;25.93;;
9689;SDS011;4884;42.614;23.340;2023-01-08T15:39:02;51.87;;;34.67;;
9689;SDS011;4884;42.614;23.340;2023-01-08T15:41:34;42.83;;;28.53;;
9689;SDS011;4884;42.614;23.340;2023-01-08T15:44:18;30.07;;;19.67;;
9689;SDS011;4884;42.614;23.340;2023-01-08T15:46:44;37.10;;;25.07;;
9689;SDS011;4884;42.614;23.340;2023-01-08T15:49:09;37.70;;;26.33;;
9689;SDS011;4884;42.614;23.340;2023-01-08T15:51:42;46.83;;;27.70;;
9689;SDS011;4884;42.614;23.340;2023-01-08T15:54:12;36.47;;;24.50;;
9689;SDS011;4884;42.614;23.340;2023-01-08T15:56:38;47.83;;;29.27;;
9689;SDS011;4884;42.614;23.340;2023-01-08T15:59:04;41.67;;;25.17;;
9689;SDS011;4884;42.614;23.340;2023-01-08T16:01:29;47.67;;;27.13;;
9689;SDS011;4884;42.614;23.340;2023-01-08T16:03:55;47.93;;;28.33;;
9689;SDS011;4884;42.614;23.340;2023-01-08T16:06:20;38.23;;;25.30;;
9689;SDS011;4884;42.614;23.340;2023-01-08T16:08:45;29.10;;;18.67;;
9689;SDS011;4884;42.614;23.340;2023-01-08T16:11:15;35.73;;;18.80;;
9689;SDS011;4884;42.614;23.340;2023-01-08T16:13:41;56.43;;;33.57;;
9689;SDS011;4884;42.614;23.340;2023-01-08T16:16:10;38.47;;;23.93;;
9689;SDS011;4884;42.614;23.340;2023-01-08T16:18:36;45.53;;;24.73;;
9689;SDS011;4884;42.614;23.340;2023-01-08T16:21:02;39.40;;;20.23;;
9689;SDS011;4884;42.614;23.340;2023-01-08T16:23:28;22.63;;;13.67;;
9689;SDS011;4884;42.614;23.340;2023-01-08T16:25:53;62.03;;;33.80;;
9689;SDS011;4884;42.614;23.340;2023-01-08T16:28:18;58.43;;;29.17;;
9689;SDS011;4884;42.614;23.340;2023-01-08T16:30:44;116.57;;;54.73;;
9689;SDS011;4884;42.614;23.340;2023-01-08T16:33:09;18.00;;;10.87;;